Time;durP1;ratioP1;P1;durP2;ratioP2;P2;SDS_P1;SDS_P2;PMS_P1;PMS_P2;Temp;Humidity;BMP_temperature;BMP_pressure;BME280_temperature;BME280_humidity;BME280_pressure;Samples;Min_cycle;Max_cycle;Signal;HPM_P1;HPM_P2
2023/11/24 00:02:45;;;;;;;2.00;0.90;;;;;;;5.54;96.00;97881.29;129711;1270;98074;-81
2023/11/24 00:05:51;;;;;;;6.70;1.70;;;;;;;5.51;95.65;97867.83;129755;1270;98820;-81
2023/11/24 00:08:57;;;;;;;3.80;1.40;;;;;;;5.49;95.53;97878.23;129817;1271;99151;-83
2023/11/24 00:12:02;;;;;;;3.00;1.00;;;;;;;5.48;95.72;97869.63;129801;1267;98006;-81
2023/11/24 00:15:09;;;;;;;4.10;1.20;;;;;;;5.48;95.56;97857.20;129873;1270;97971;-81
2023/11/24 00:18:15;;;;;;;3.60;1.00;;;;;;;5.51;95.33;97849.13;129831;1266;98474;-81
2023/11/24 00:21:21;;;;;;;3.80;1.30;;;;;;;5.54;95.58;97820.09;130010;1267;98061;-81
2023/11/24 00:24:27;;;;;;;4.30;1.40;;;;;;;5.56;95.42;97836.97;129790;1270;97981;-81
2023/11/24 00:27:33;;;;;;;6.90;1.10;;;;;;;5.55;94.92;97828.45;129772;1270;99188;-81
2023/11/24 00:30:39;;;;;;;3.70;1.00;;;;;;;5.55;94.60;97815.95;129740;1270;98058;-81
2023/11/24 00:33:45;;;;;;;3.10;0.90;;;;;;;5.57;94.78;97827.45;129807;1267;99080;-81
2023/11/24 00:36:51;;;;;;;3.80;1.30;;;;;;;5.60;94.09;97844.40;129830;1267;98081;-81
2023/11/24 00:39:57;;;;;;;2.60;1.00;;;;;;;5.66;94.32;97852.71;129855;1268;98251;-81
2023/11/24 00:43:04;;;;;;;3.90;1.00;;;;;;;5.67;93.79;97845.11;129804;1270;98071;-81
2023/11/24 00:46:11;;;;;;;4.60;1.00;;;;;;;5.66;93.87;97838.42;129676;1270;98002;-81
2023/11/24 00:49:17;;;;;;;3.10;1.10;;;;;;;5.63;92.65;97838.23;129652;1270;99167;-84
2023/11/24 00:52:25;;;;;;;4.40;1.30;;;;;;;5.65;93.21;97851.06;129651;1267;98660;-83
2023/11/24 00:55:31;;;;;;;3.40;1.20;;;;;;;5.67;92.94;97853.95;129747;1267;97984;-81
2023/11/24 00:58:37;;;;;;;3.80;1.50;;;;;;;5.67;92.97;97844.83;129790;1270;98039;-81
2023/11/24 01:01:43;;;;;;;12.80;5.90;;;;;;;5.65;93.09;97832.47;129825;1270;98054;-82
2023/11/24 01:04:49;;;;;;;5.00;1.40;;;;;;;5.59;94.34;97833.46;129803;1271;98768;-82
2023/11/24 01:07:55;;;;;;;4.10;1.70;;;;;;;5.52;95.09;97835.16;129708;1268;98025;-82
2023/11/24 01:11:02;;;;;;;3.50;1.40;;;;;;;5.50;95.49;97848.92;129766;1272;98078;-82
2023/11/24 01:14:07;;;;;;;4.70;1.60;;;;;;;5.46;95.37;97846.58;129727;1267;99078;-82
2023/11/24 01:17:13;;;;;;;5.40;1.90;;;;;;;5.38;95.71;97845.85;129749;1268;98771;-82
2023/11/24 01:20:19;;;;;;;4.00;1.40;;;;;;;5.33;95.73;97845.05;129913;1267;98051;-82
2023/11/24 01:23:26;;;;;;;5.30;1.80;;;;;;;5.33;95.82;97849.64;129717;1267;98457;-81
2023/11/24 01:26:32;;;;;;;2.50;1.50;;;;;;;5.37;95.82;97846.89;129623;1267;99095;-82
2023/11/24 01:29:39;;;;;;;3.10;1.20;;;;;;;5.41;95.85;97843.29;129586;1273;98749;-82
2023/11/24 01:32:44;;;;;;;3.60;1.30;;;;;;;5.38;95.47;97833.39;129505;1269;99180;-81
2023/11/24 01:35:50;;;;;;;5.00;3.00;;;;;;;5.27;95.57;97828.44;129722;1271;98006;-81
2023/11/24 01:38:56;;;;;;;4.10;1.20;;;;;;;5.20;95.62;97821.89;129686;1269;97987;-81
2023/11/24 01:42:01;;;;;;;4.40;1.30;;;;;;;5.17;95.31;97813.98;129720;1267;98825;-80
2023/11/24 01:45:10;;;;;;;5.40;1.40;;;;;;;5.14;94.87;97818.02;129740;1268;98697;-83
2023/11/24 01:48:19;;;;;;;4.60;1.60;;;;;;;5.12;94.75;97817.21;129811;1270;97985;-83
2023/11/24 01:51:25;;;;;;;4.70;1.80;;;;;;;5.09;94.23;97816.98;129802;1270;97992;-80
2023/11/24 01:54:36;;;;;;;5.00;1.10;;;;;;;5.05;94.01;97831.73;129655;1270;97987;-83
2023/11/24 01:57:42;;;;;;;4.60;1.40;;;;;;;5.06;93.34;97834.06;129703;1270;98074;-83
2023/11/24 02:00:49;;;;;;;2.70;1.50;;;;;;;5.09;93.45;97837.05;129777;1270;97976;-81
2023/11/24 02:03:56;;;;;;;5.80;1.60;;;;;;;5.12;91.99;97833.79;129825;1270;97975;-81
2023/11/24 02:07:02;;;;;;;7.10;1.60;;;;;;;5.11;91.12;97826.50;129749;1271;99183;-81
2023/11/24 02:10:10;;;;;;;6.50;2.10;;;;;;;5.11;90.97;97825.04;129540;1269;99145;-81
2023/11/24 02:13:16;;;;;;;4.30;1.50;;;;;;;5.11;91.06;97829.63;129933;1268;98072;-81
2023/11/24 02:16:22;;;;;;;5.60;1.60;;;;;;;5.10;90.12;97823.63;129910;1268;98020;-81
2023/11/24 02:19:28;;;;;;;4.90;1.50;;;;;;;5.11;88.71;97824.14;129822;1270;98020;-81
2023/11/24 02:22:38;;;;;;;6.30;1.50;;;;;;;5.12;88.67;97820.53;130010;1270;98030;-81
2023/11/24 02:25:43;;;;;;;3.20;1.10;;;;;;;5.09;87.84;97816.84;129838;1267;98052;-81
2023/11/24 02:28:49;;;;;;;7.30;1.70;;;;;;;5.07;88.97;97807.20;129793;1268;98068;-81
2023/11/24 02:31:55;;;;;;;4.50;1.40;;;;;;;5.03;88.63;97799.01;129801;1268;97985;-81
2023/11/24 02:35:00;;;;;;;5.60;1.40;;;;;;;4.98;89.47;97802.48;129826;1269;98126;-81
2023/11/24 02:38:06;;;;;;;7.20;1.30;;;;;;;4.93;89.66;97804.40;129735;1268;98688;-81
2023/11/24 02:41:12;;;;;;;7.90;1.40;;;;;;;4.90;89.92;97801.87;129789;1268;98676;-81
2023/11/24 02:44:17;;;;;;;6.00;1.80;;;;;;;4.91;89.63;97806.41;129741;1270;98062;-82
2023/11/24 02:47:23;;;;;;;5.60;1.40;;;;;;;4.89;89.55;97808.17;129831;1270;97987;-81
2023/11/24 02:50:28;;;;;;;3.20;1.00;;;;;;;4.84;89.44;97817.14;129823;1271;98041;-81
2023/11/24 02:53:35;;;;;;;5.40;1.40;;;;;;;4.76;89.15;97821.55;129833;1271;98797;-81
2023/11/24 02:56:40;;;;;;;4.10;1.20;;;;;;;4.66;88.58;97827.05;129809;1271;97988;-81
2023/11/24 02:59:46;;;;;;;3.00;0.80;;;;;;;4.57;88.85;97830.23;129822;1270;99208;-81
2023/11/24 03:02:51;;;;;;;2.40;0.80;;;;;;;4.51;87.67;97833.72;129869;1266;97974;-81
2023/11/24 03:05:57;;;;;;;4.80;1.10;;;;;;;4.47;87.84;97835.23;129789;1268;98041;-81
2023/11/24 03:09:06;;;;;;;3.70;1.20;;;;;;;4.45;88.04;97825.00;129804;1268;98641;-82
2023/11/24 03:12:12;;;;;;;5.20;1.40;;;;;;;4.43;87.96;97825.41;129792;1267;98066;-81
2023/11/24 03:15:17;;;;;;;10.80;5.00;;;;;;;4.37;86.85;97828.77;129824;1269;99212;-81
2023/11/24 03:18:24;;;;;;;184.60;64.30;;;;;;;4.29;86.63;97828.77;129943;1270;98067;-81
2023/11/24 03:21:30;;;;;;;28.90;11.50;;;;;;;4.22;86.75;97835.23;130015;1268;98068;-84
2023/11/24 03:24:36;;;;;;;14.50;6.60;;;;;;;4.12;85.58;97839.42;129763;1270;98064;-81
2023/11/24 03:27:42;;;;;;;29.00;11.40;;;;;;;4.08;85.54;97832.55;129692;1272;98083;-81
2023/11/24 03:30:48;;;;;;;11.50;3.40;;;;;;;4.06;85.14;97825.36;129906;1270;99186;-81
2023/11/24 03:33:53;;;;;;;12.50;4.10;;;;;;;4.01;83.58;97839.50;129808;1271;97990;-81
2023/11/24 03:36:59;;;;;;;8.80;3.00;;;;;;;3.97;85.01;97826.22;129591;1270;99239;-78
2023/11/24 03:40:06;;;;;;;74.10;35.60;;;;;;;3.96;85.23;97828.11;129538;1268;99163;-80
2023/11/24 03:43:11;;;;;;;5.90;2.00;;;;;;;3.99;85.85;97826.55;129561;1270;99192;-77
2023/11/24 03:46:17;;;;;;;6.40;2.00;;;;;;;3.98;85.07;97839.11;129672;1268;97975;-79
2023/11/24 03:49:22;;;;;;;9.60;3.50;;;;;;;4.00;86.14;97824.42;129699;1270;97949;-78
2023/11/24 03:52:28;;;;;;;36.10;15.80;;;;;;;4.05;86.20;97825.14;129568;1270;98097;-79
2023/11/24 03:55:34;;;;;;;43.90;20.10;;;;;;;4.10;86.72;97828.12;129563;1270;99263;-79
2023/11/24 03:58:39;;;;;;;111.50;40.70;;;;;;;4.12;85.87;97834.91;129628;1289;99168;-78
2023/11/24 04:01:45;;;;;;;15.90;10.40;;;;;;;4.11;86.62;97828.84;129558;1270;99180;-79
2023/11/24 04:04:51;;;;;;;5.60;2.10;;;;;;;4.15;86.86;97823.50;129668;1270;99317;-78
2023/11/24 04:07:56;;;;;;;6.10;2.60;;;;;;;4.14;86.62;97815.10;129554;1269;98010;-78
2023/11/24 04:11:02;;;;;;;3.60;1.90;;;;;;;4.20;86.55;97813.71;129600;1270;98755;-78
2023/11/24 04:14:08;;;;;;;8.00;2.30;;;;;;;4.29;86.78;97808.00;129592;1270;99187;-79
2023/11/24 04:17:13;;;;;;;7.30;2.60;;;;;;;4.36;85.97;97809.48;129575;1271;97991;-79
2023/11/24 04:20:19;;;;;;;5.80;2.10;;;;;;;4.38;85.87;97803.30;129614;1270;98060;-79
2023/11/24 04:23:25;;;;;;;37.10;15.90;;;;;;;4.38;85.89;97803.48;129611;1271;99166;-78
2023/11/24 04:26:30;;;;;;;39.80;15.20;;;;;;;4.38;85.50;97806.02;129574;1270;99392;-79
2023/11/24 04:29:36;;;;;;;13.80;5.60;;;;;;;4.37;85.72;97803.83;129667;1270;98003;-79
2023/11/24 04:32:41;;;;;;;86.30;32.20;;;;;;;4.36;85.86;97801.63;129667;1268;98105;-80
2023/11/24 04:35:47;;;;;;;13.60;7.00;;;;;;;4.37;85.67;97801.88;129819;1269;97974;-78
2023/11/24 04:38:53;;;;;;;6.00;2.60;;;;;;;4.37;86.10;97808.75;129589;1268;98010;-78
2023/11/24 04:41:59;;;;;;;5.10;1.80;;;;;;;4.35;86.00;97812.29;129575;1271;98026;-78
2023/11/24 04:45:06;;;;;;;6.40;2.80;;;;;;;4.28;85.51;97818.96;129591;1270;98082;-80
2023/11/24 04:48:12;;;;;;;8.40;5.10;;;;;;;4.20;86.28;97810.42;129617;1270;98192;-79
2023/11/24 04:51:18;;;;;;;17.80;9.20;;;;;;;4.13;86.08;97810.52;129739;1268;97970;-79
2023/11/24 04:54:23;;;;;;;6.70;2.70;;;;;;;4.09;86.39;97809.20;129660;1270;97990;-79
2023/11/24 04:57:29;;;;;;;7.90;2.80;;;;;;;4.07;86.20;97810.31;129592;1270;99159;-79
2023/11/24 05:00:35;;;;;;;222.80;56.40;;;;;;;4.04;86.39;97818.34;129593;1267;98037;-78
2023/11/24 05:03:41;;;;;;;17.80;6.70;;;;;;;4.02;86.41;97818.13;129655;1269;98648;-79
2023/11/24 05:06:47;;;;;;;8.80;2.40;;;;;;;4.00;86.63;97820.58;129687;1269;99157;-79
2023/11/24 05:09:53;;;;;;;7.40;2.60;;;;;;;3.99;86.58;97824.77;129644;1271;98091;-80
2023/11/24 05:12:58;;;;;;;4.00;1.70;;;;;;;3.95;86.69;97823.10;129674;1270;97991;-80
2023/11/24 05:16:05;;;;;;;5.80;1.80;;;;;;;3.93;86.72;97820.30;129669;1270;99161;-80
2023/11/24 05:19:10;;;;;;;2.90;0.90;;;;;;;3.93;86.54;97824.15;129708;1281;97974;-80
2023/11/24 05:22:18;;;;;;;4.40;1.10;;;;;;;3.83;86.19;97835.77;129653;1270;98478;-80
2023/11/24 05:25:24;;;;;;;24.90;12.60;;;;;;;3.73;86.78;97841.34;129707;1268;99061;-80
2023/11/24 05:28:30;;;;;;;14.40;6.20;;;;;;;3.61;87.18;97843.14;129665;1268;97991;-80
2023/11/24 05:31:35;;;;;;;53.90;24.70;;;;;;;3.48;87.50;97843.10;129550;1268;99006;-80
2023/11/24 05:34:41;;;;;;;53.20;16.50;;;;;;;3.38;87.63;97839.55;130012;1269;97961;-78
2023/11/24 05:37:47;;;;;;;85.90;25.20;;;;;;;3.32;87.75;97837.16;129573;1270;98093;-78
2023/11/24 05:40:52;;;;;;;38.70;12.60;;;;;;;3.31;87.69;97839.71;129559;1270;99579;-74
2023/11/24 05:43:58;;;;;;;572.20;196.60;;;;;;;3.29;87.27;97845.56;129608;1270;97950;-74
2023/11/24 05:47:04;;;;;;;190.40;55.10;;;;;;;3.25;86.68;97846.02;129594;1267;97980;-74
2023/11/24 05:50:17;;;;;;;568.80;217.20;;;;;;;3.24;86.25;97848.52;129666;1268;99043;-74
2023/11/24 05:53:23;;;;;;;222.70;67.40;;;;;;;3.27;86.23;97857.26;129580;1271;98095;-74
2023/11/24 05:56:28;;;;;;;555.80;223.60;;;;;;;3.32;85.96;97848.95;129554;1274;98061;-74
2023/11/24 05:59:34;;;;;;;51.20;25.30;;;;;;;3.39;85.83;97849.02;129585;1270;98714;-76
2023/11/24 06:02:39;;;;;;;18.60;5.90;;;;;;;3.44;85.65;97851.01;129599;1271;98642;-74
2023/11/24 06:05:46;;;;;;;15.00;4.70;;;;;;;3.47;85.82;97851.05;129602;1268;99206;-76
2023/11/24 06:08:51;;;;;;;11.80;3.00;;;;;;;3.46;85.54;97851.24;129586;1271;99186;-76
2023/11/24 06:11:57;;;;;;;6.90;2.50;;;;;;;3.45;85.69;97853.71;129635;1268;98129;-74
2023/11/24 06:15:03;;;;;;;7.10;2.70;;;;;;;3.41;85.58;97853.55;129584;1270;99146;-74
2023/11/24 06:18:08;;;;;;;5.60;1.50;;;;;;;3.36;85.54;97861.54;129552;1271;97986;-75
2023/11/24 06:21:14;;;;;;;8.80;2.20;;;;;;;3.28;85.55;97867.60;129571;1270;97977;-76
2023/11/24 06:24:20;;;;;;;9.50;4.00;;;;;;;3.25;85.18;97864.65;129574;1268;97994;-75
2023/11/24 06:27:25;;;;;;;13.00;7.80;;;;;;;3.28;85.00;97866.61;129681;1270;98040;-74
2023/11/24 06:30:31;;;;;;;11.20;4.90;;;;;;;3.36;84.86;97877.18;129609;1269;97968;-75
2023/11/24 06:33:36;;;;;;;21.60;17.10;;;;;;;3.42;84.63;97878.46;129620;1270;97985;-74
2023/11/24 06:36:42;;;;;;;9.50;3.20;;;;;;;3.46;84.66;97875.36;129577;1270;98073;-74
2023/11/24 06:39:48;;;;;;;12.50;4.90;;;;;;;3.49;83.85;97878.16;129551;1280;99202;-75
2023/11/24 06:42:53;;;;;;;10.00;5.60;;;;;;;3.50;83.94;97885.16;129581;1269;99067;-78
2023/11/24 06:45:59;;;;;;;15.50;8.10;;;;;;;3.50;84.13;97886.48;129621;1271;99164;-77
2023/11/24 06:49:06;;;;;;;12.90;7.30;;;;;;;3.53;83.61;97880.60;129638;1268;98059;-78
2023/11/24 06:52:11;;;;;;;25.10;14.60;;;;;;;3.58;83.78;97886.80;129598;1277;97991;-80
2023/11/24 06:55:18;;;;;;;16.50;6.30;;;;;;;3.62;83.12;97887.77;129588;1267;98044;-76
2023/11/24 06:58:23;;;;;;;13.40;3.60;;;;;;;3.61;83.54;97879.72;129709;1280;98017;-85
2023/11/24 07:01:31;;;;;;;9.40;2.40;;;;;;;3.58;82.90;97883.59;129766;1267;99269;-83
2023/11/24 07:04:37;;;;;;;7.30;1.90;;;;;;;3.53;82.99;97885.17;129950;1270;98000;-81
2023/11/24 07:07:43;;;;;;;8.50;2.00;;;;;;;3.46;81.96;97887.70;129958;1270;99052;-81
2023/11/24 07:10:49;;;;;;;14.70;5.70;;;;;;;3.45;83.02;97882.98;129865;1270;99177;-82
2023/11/24 07:13:55;;;;;;;111.10;36.90;;;;;;;3.54;81.95;97889.46;129816;1271;99049;-82
2023/11/24 07:17:01;;;;;;;129.90;40.80;;;;;;;3.57;82.91;97886.50;129812;1271;97967;-81
2023/11/24 07:20:11;;;;;;;215.10;72.00;;;;;;;3.62;82.50;97884.92;129806;1265;97979;-81
2023/11/24 07:23:19;;;;;;;488.90;194.30;;;;;;;3.67;82.27;97886.78;129837;1271;99072;-81
2023/11/24 07:26:24;;;;;;;69.30;22.00;;;;;;;3.65;81.62;97887.58;129804;1267;98232;-82
2023/11/24 07:29:30;;;;;;;229.50;100.50;;;;;;;3.58;81.56;97890.09;129804;1279;99046;-81
2023/11/24 07:32:36;;;;;;;22.60;7.50;;;;;;;3.62;82.17;97885.30;129790;1269;97963;-81
2023/11/24 07:35:43;;;;;;;8.80;2.10;;;;;;;3.61;81.81;97883.95;129778;1271;98054;-81
2023/11/24 07:38:49;;;;;;;7.60;2.00;;;;;;;3.62;81.50;97882.41;129744;1268;98061;-81
2023/11/24 07:41:55;;;;;;;8.10;2.00;;;;;;;3.75;81.51;97884.05;129772;1268;98845;-81
2023/11/24 07:45:00;;;;;;;10.70;3.60;;;;;;;3.89;82.19;97880.66;129727;1271;98800;-81
2023/11/24 07:48:07;;;;;;;28.70;12.30;;;;;;;4.03;80.72;97880.23;129716;1270;98112;-81
2023/11/24 07:51:12;;;;;;;11.00;4.00;;;;;;;4.07;81.58;97877.88;129844;1271;98675;-82
2023/11/24 07:54:18;;;;;;;10.20;2.70;;;;;;;4.09;80.94;97876.61;129851;1267;98097;-81
2023/11/24 07:57:26;;;;;;;98.30;57.60;;;;;;;4.10;81.33;97876.64;129852;1271;98064;-81
2023/11/24 08:00:32;;;;;;;19.00;10.00;;;;;;;4.16;81.48;97879.34;129874;1269;97989;-81
2023/11/24 08:03:37;;;;;;;14.90;6.30;;;;;;;4.18;80.96;97877.01;129806;1269;99173;-81
2023/11/24 08:06:43;;;;;;;10.00;2.30;;;;;;;4.15;81.24;97866.73;129844;1270;98096;-80
2023/11/24 08:09:48;;;;;;;20.30;8.40;;;;;;;4.15;80.17;97858.65;129770;1270;97977;-81
2023/11/24 08:12:54;;;;;;;49.90;29.10;;;;;;;4.24;81.01;97857.82;129793;1268;97998;-81
2023/11/24 08:16:00;;;;;;;82.20;50.10;;;;;;;4.34;80.43;97855.45;129820;1271;98096;-81
2023/11/24 08:19:06;;;;;;;28.80;15.30;;;;;;;4.38;79.49;97857.84;129835;1267;98002;-81
2023/11/24 08:22:12;;;;;;;22.30;10.70;;;;;;;4.39;80.37;97866.59;129822;1271;99189;-81
2023/11/24 08:25:18;;;;;;;30.30;16.10;;;;;;;4.34;79.53;97861.44;129889;1271;98010;-81
2023/11/24 08:28:23;;;;;;;22.50;10.60;;;;;;;4.36;80.27;97860.40;129812;1268;97967;-81
2023/11/24 08:31:29;;;;;;;20.30;11.20;;;;;;;4.33;79.71;97854.34;129943;1269;97966;-81
2023/11/24 08:34:34;;;;;;;11.80;2.90;;;;;;;4.25;78.72;97860.55;129994;1281;99071;-81
2023/11/24 08:37:40;;;;;;;6.30;2.80;;;;;;;4.26;78.93;97860.45;129831;1270;98093;-81
2023/11/24 08:40:46;;;;;;;14.00;4.40;;;;;;;4.30;79.35;97862.74;129860;1270;98657;-83
2023/11/24 08:43:51;;;;;;;7.70;2.60;;;;;;;4.39;79.79;97861.40;129843;1266;99140;-81
2023/11/24 08:46:57;;;;;;;35.10;21.50;;;;;;;4.49;79.17;97855.39;129812;1274;98682;-81
2023/11/24 08:50:03;;;;;;;24.10;10.70;;;;;;;4.59;78.30;97859.44;129856;1265;97977;-81
2023/11/24 08:53:08;;;;;;;10.40;4.10;;;;;;;4.54;77.76;97857.08;129824;1270;97984;-81
2023/11/24 08:56:14;;;;;;;10.50;2.40;;;;;;;4.51;78.45;97852.57;129867;1267;98676;-81
2023/11/24 08:59:19;;;;;;;72.70;28.80;;;;;;;4.43;77.99;97858.85;129852;1269;98067;-81
2023/11/24 09:02:26;;;;;;;167.80;63.70;;;;;;;4.45;79.30;97857.78;129863;1267;99075;-81
2023/11/24 09:05:33;;;;;;;18.30;6.70;;;;;;;4.45;78.94;97865.67;129837;1279;98067;-81
2023/11/24 09:08:38;;;;;;;217.70;71.90;;;;;;;4.37;78.27;97867.48;129936;1270;98305;-81
2023/11/24 09:11:44;;;;;;;348.80;117.50;;;;;;;4.32;78.71;97865.33;129857;1281;97994;-81
2023/11/24 09:14:49;;;;;;;55.30;18.40;;;;;;;4.39;79.60;97865.37;129805;1269;97984;-81
2023/11/24 09:17:56;;;;;;;32.90;12.50;;;;;;;4.40;79.22;97862.76;129845;1281;99183;-81
2023/11/24 09:21:02;;;;;;;12.80;4.90;;;;;;;4.31;79.10;97862.02;129840;1281;98758;-81
2023/11/24 09:24:10;;;;;;;10.80;4.20;;;;;;;4.25;79.04;97857.39;129799;1268;98047;-81
2023/11/24 09:27:16;;;;;;;29.00;14.20;;;;;;;4.21;79.44;97860.08;129825;1271;98006;-81
2023/11/24 09:30:22;;;;;;;63.20;35.40;;;;;;;4.18;78.65;97865.93;129838;1270;98065;-81
2023/11/24 09:33:28;;;;;;;9.00;3.70;;;;;;;4.19;79.03;97855.77;129833;1270;99155;-81
2023/11/24 09:36:33;;;;;;;17.50;9.40;;;;;;;4.22;78.56;97851.48;129929;1281;97988;-81
2023/11/24 09:39:40;;;;;;;7.60;4.10;;;;;;;4.29;79.12;97850.59;129915;1267;98005;-82
2023/11/24 09:42:47;;;;;;;15.10;7.90;;;;;;;4.37;78.66;97849.17;129831;1271;98067;-81
2023/11/24 09:45:52;;;;;;;9.20;2.90;;;;;;;4.38;77.94;97846.27;129783;1269;99291;-83
2023/11/24 09:49:01;;;;;;;9.70;2.90;;;;;;;4.37;78.66;97846.57;129835;1267;97991;-77
2023/11/24 09:52:07;;;;;;;19.30;9.10;;;;;;;4.35;78.67;97843.91;129794;1267;98000;-81
2023/11/24 09:55:13;;;;;;;8.30;3.60;;;;;;;4.43;78.74;97834.42;129605;1267;97997;-79
2023/11/24 09:58:20;;;;;;;55.80;26.80;;;;;;;4.45;77.04;97830.98;129711;1269;97975;-80
2023/11/24 10:01:26;;;;;;;23.40;8.60;;;;;;;4.51;77.18;97839.16;129691;1267;98046;-78
2023/11/24 10:04:31;;;;;;;13.60;6.10;;;;;;;4.57;77.31;97831.73;129768;1279;98653;-78
2023/11/24 10:07:37;;;;;;;35.70;18.20;;;;;;;4.60;77.21;97822.56;129568;1270;99222;-78
2023/11/24 10:10:43;;;;;;;55.20;27.50;;;;;;;4.62;76.11;97833.16;129589;1271;99164;-78
2023/11/24 10:13:48;;;;;;;7.90;2.80;;;;;;;4.59;76.04;97822.27;129719;1270;98627;-78
2023/11/24 10:16:54;;;;;;;10.10;5.30;;;;;;;4.57;75.85;97820.12;129587;1267;98092;-78
2023/11/24 10:20:00;;;;;;;14.50;5.60;;;;;;;4.63;75.32;97826.67;129634;1271;98124;-78
2023/11/24 10:23:06;;;;;;;7.40;3.10;;;;;;;4.62;75.05;97820.27;129596;1272;98020;-79
2023/11/24 10:26:15;;;;;;;9.60;2.90;;;;;;;4.61;76.23;97811.95;129693;1270;98774;-79
2023/11/24 10:29:24;;;;;;;6.30;2.40;;;;;;;4.62;75.05;97815.65;129723;1269;97965;-77
2023/11/24 10:32:29;;;;;;;7.20;2.40;;;;;;;4.55;74.16;97814.92;129594;1269;97968;-79
2023/11/24 10:35:35;;;;;;;8.70;3.90;;;;;;;4.45;73.89;97814.68;129637;1271;98065;-78
2023/11/24 10:38:42;;;;;;;14.40;7.70;;;;;;;4.41;74.78;97804.80;129594;1270;98628;-78
2023/11/24 10:41:51;;;;;;;39.10;16.30;;;;;;;4.40;74.80;97802.91;129593;1281;99167;-78
2023/11/24 10:44:59;;;;;;;139.50;64.30;;;;;;;4.46;75.13;97807.64;129575;1278;98006;-78
2023/11/24 10:48:15;;;;;;;31.50;15.10;;;;;;;4.53;75.22;97805.64;129651;1268;98000;-77
2023/11/24 10:51:38;;;;;;;19.70;10.10;;;;;;;4.52;75.24;97804.73;129646;1272;98411;-77
2023/11/24 10:54:52;;;;;;;17.40;9.40;;;;;;;4.53;75.41;97801.59;129632;1270;97962;-77
2023/11/24 10:57:57;;;;;;;7.30;2.70;;;;;;;4.50;74.90;97814.98;129654;1271;99050;-77
2023/11/24 11:01:03;;;;;;;8.00;2.80;;;;;;;4.43;75.73;97809.84;129536;1282;99163;-78
2023/11/24 11:04:09;;;;;;;7.30;2.30;;;;;;;4.32;75.45;97809.93;129644;1279;97986;-76
2023/11/24 11:07:27;;;;;;;10.70;3.40;;;;;;;4.19;75.03;97811.79;129585;1270;98097;-77
2023/11/24 11:10:44;;;;;;;31.50;16.50;;;;;;;3.98;77.27;97824.46;129597;1280;99173;-77
2023/11/24 11:13:53;;;;;;;26.60;15.30;;;;;;;3.78;79.68;97811.77;129520;1272;97991;-77
2023/11/24 11:16:59;;;;;;;5.30;1.90;;;;;;;3.70;80.34;97805.91;129567;1270;99161;-77
2023/11/24 11:20:12;;;;;;;7.30;3.00;;;;;;;3.74;80.85;97804.80;129617;1267;98758;-78
2023/11/24 11:23:18;;;;;;;12.50;5.80;;;;;;;3.81;80.26;97802.99;129579;1271;98070;-76
2023/11/24 11:26:47;;;;;;;14.90;7.80;;;;;;;3.92;80.13;97803.98;129588;1269;98027;-77
2023/11/24 11:29:53;;;;;;;13.10;8.00;;;;;;;4.01;78.10;97807.97;129622;1267;97970;-76
2023/11/24 11:33:19;;;;;;;12.10;5.30;;;;;;;4.10;78.13;97813.52;129590;1269;98028;-77
2023/11/24 11:36:29;;;;;;;9.90;4.40;;;;;;;4.15;77.41;97810.97;129617;1265;98106;-76
2023/11/24 11:39:43;;;;;;;15.20;8.80;;;;;;;4.18;77.38;97808.20;129819;1267;98671;-77
2023/11/24 11:42:58;;;;;;;33.60;17.60;;;;;;;4.17;76.74;97805.89;129725;1269;99176;-78
2023/11/24 11:46:04;;;;;;;10.20;5.10;;;;;;;4.16;76.91;97810.88;129657;1267;99030;-77
2023/11/24 11:49:10;;;;;;;10.70;5.50;;;;;;;4.09;76.67;97810.64;129690;1270;98060;-83
2023/11/24 11:52:16;;;;;;;15.30;7.00;;;;;;;4.09;76.88;97815.52;129598;1270;98198;-78
2023/11/24 11:55:22;;;;;;;8.70;3.80;;;;;;;4.12;76.81;97811.69;129549;1267;97978;-77
2023/11/24 11:58:29;;;;;;;5.20;2.50;;;;;;;4.14;76.32;97813.38;129446;1271;198956;-77
2023/11/24 12:01:36;;;;;;;6.70;2.80;;;;;;;4.15;75.87;97818.55;129584;1267;99078;-76
2023/11/24 12:04:42;;;;;;;5.40;2.10;;;;;;;4.17;74.54;97814.80;129673;1270;97997;-76
2023/11/24 12:07:48;;;;;;;5.90;2.70;;;;;;;4.25;75.50;97809.71;129621;1268;98062;-75
2023/11/24 12:10:54;;;;;;;8.10;3.20;;;;;;;4.32;75.05;97808.23;129586;1269;99192;-76
2023/11/24 12:14:00;;;;;;;39.70;15.80;;;;;;;4.36;74.66;97813.56;129593;1271;99182;-76
2023/11/24 12:17:06;;;;;;;63.00;26.10;;;;;;;4.41;74.84;97812.78;129577;1270;97997;-76
2023/11/24 12:20:14;;;;;;;234.30;92.70;;;;;;;4.51;74.98;97808.14;129598;1272;97963;-76
2023/11/24 12:23:28;;;;;;;163.60;63.80;;;;;;;4.52;73.29;97811.56;129749;1268;97987;-78
2023/11/24 12:26:38;;;;;;;157.50;55.50;;;;;;;4.46;74.26;97814.21;129545;1270;98002;-76
2023/11/24 12:29:46;;;;;;;81.60;29.60;;;;;;;4.45;73.66;97814.52;129564;1278;98035;-77
2023/11/24 12:32:54;;;;;;;50.50;16.80;;;;;;;4.36;72.91;97814.11;129703;1270;98465;-77
2023/11/24 12:36:01;;;;;;;89.40;30.30;;;;;;;4.30;73.45;97814.73;129710;1267;98063;-78
2023/11/24 12:39:07;;;;;;;34.40;12.60;;;;;;;4.27;73.02;97813.33;129711;1267;98060;-76
2023/11/24 12:42:13;;;;;;;51.40;17.90;;;;;;;4.19;72.93;97811.38;129823;1267;99183;-76
2023/11/24 12:45:21;;;;;;;98.00;38.30;;;;;;;4.15;73.68;97813.77;129641;1280;98032;-76
2023/11/24 12:48:34;;;;;;;170.70;80.00;;;;;;;4.10;73.31;97809.21;129673;1269;98004;-77
2023/11/24 12:51:46;;;;;;;154.70;87.70;;;;;;;4.07;73.89;97802.71;129668;1267;98002;-77
2023/11/24 12:54:52;;;;;;;18.90;10.40;;;;;;;4.08;73.85;97801.60;129554;1270;99173;-75
2023/11/24 12:57:57;;;;;;;315.20;144.70;;;;;;;4.06;73.93;97795.52;129580;1270;97997;-76
2023/11/24 13:01:04;;;;;;;14.30;6.50;;;;;;;4.13;74.20;97794.85;129702;1270;98800;-76
2023/11/24 13:04:10;;;;;;;14.60;7.00;;;;;;;4.21;73.93;97797.52;129626;1281;99236;-76
2023/11/24 13:07:17;;;;;;;11.80;5.00;;;;;;;4.26;73.99;97797.76;129653;1270;98855;-76
2023/11/24 13:10:24;;;;;;;10.80;4.40;;;;;;;4.28;73.12;97800.52;129647;1270;98076;-76
2023/11/24 13:13:30;;;;;;;22.00;12.00;;;;;;;4.29;73.74;97795.36;129642;1271;98070;-76
2023/11/24 13:16:36;;;;;;;31.40;15.80;;;;;;;4.35;73.53;97795.92;129584;1270;99196;-76
2023/11/24 13:19:42;;;;;;;62.00;34.20;;;;;;;4.38;73.42;97794.91;129564;1270;98500;-77
2023/11/24 13:22:48;;;;;;;29.50;15.60;;;;;;;4.41;73.61;97803.19;129571;1267;99062;-76
2023/11/24 13:25:54;;;;;;;31.10;17.80;;;;;;;4.42;74.21;97805.32;129579;1270;98092;-76
2023/11/24 13:28:59;;;;;;;12.80;6.00;;;;;;;4.42;73.45;97802.89;129556;1267;97988;-76
2023/11/24 13:32:07;;;;;;;13.50;6.90;;;;;;;4.39;73.57;97809.14;129697;1269;99176;-76
2023/11/24 13:35:15;;;;;;;9.90;4.30;;;;;;;4.36;73.62;97813.02;129615;1270;98002;-76
2023/11/24 13:38:21;;;;;;;11.10;6.70;;;;;;;4.27;72.39;97820.64;129562;1272;99163;-75
2023/11/24 13:41:28;;;;;;;24.00;17.60;;;;;;;4.21;73.95;97816.16;129631;1267;98094;-78
2023/11/24 13:44:34;;;;;;;20.30;11.70;;;;;;;4.22;74.20;97811.80;129604;1271;98017;-75
2023/11/24 13:47:41;;;;;;;61.30;37.30;;;;;;;4.23;73.56;97814.52;129583;1267;98065;-75
2023/11/24 13:50:47;;;;;;;26.00;14.80;;;;;;;4.19;73.54;97819.56;129726;1267;99286;-76
2023/11/24 13:53:52;;;;;;;15.90;7.50;;;;;;;4.14;73.60;97813.55;129593;1268;99090;-76
2023/11/24 13:56:58;;;;;;;43.50;27.60;;;;;;;4.09;73.38;97810.62;129739;1265;98064;-76
2023/11/24 14:00:06;;;;;;;9.80;4.00;;;;;;;4.02;72.62;97816.47;129576;1271;98003;-76
2023/11/24 14:03:12;;;;;;;7.90;3.00;;;;;;;3.85;73.44;97854.59;129618;1270;99192;-76
2023/11/24 14:06:19;;;;;;;5.50;2.60;;;;;;;3.45;76.57;97854.94;129622;1270;98016;-76
2023/11/24 14:09:31;;;;;;;35.40;23.20;;;;;;;3.10;77.62;97848.70;129558;1267;98553;-76
2023/11/24 14:12:36;;;;;;;98.00;41.50;;;;;;;2.89;78.14;97846.81;129622;1270;97977;-78
2023/11/24 14:15:42;;;;;;;20.90;9.70;;;;;;;2.71;78.61;97847.75;129499;1273;98077;-76
2023/11/24 14:18:48;;;;;;;48.10;23.30;;;;;;;2.56;79.53;97844.23;129530;1282;97987;-78
2023/11/24 14:21:55;;;;;;;12.00;5.70;;;;;;;2.44;79.37;97850.79;129511;1267;98079;-76
2023/11/24 14:25:01;;;;;;;100.50;36.80;;;;;;;2.34;80.91;97847.50;129510;1272;99078;-76
2023/11/24 14:28:07;;;;;;;37.00;20.50;;;;;;;2.34;79.95;97843.86;129549;1267;99062;-76